createdAt,value
2022-11-01T00:01:42.115Z,22.10
2022-11-01T00:03:43.661Z,21.88
2022-11-01T00:05:45.606Z,21.65
2022-11-01T00:07:47.112Z,21.55
2022-11-01T00:09:49.287Z,22.35
2022-11-01T00:11:54.974Z,23.70
2022-11-01T00:13:56.577Z,22.08
2022-11-01T00:15:58.423Z,21.48
2022-11-01T00:17:59.950Z,22.40
2022-11-01T00:20:01.510Z,21.02
2022-11-01T00:22:03.079Z,21.92
2022-11-01T00:24:05.482Z,22.23
2022-11-01T00:26:07.775Z,22.58
2022-11-01T00:28:10.808Z,22.75
2022-11-01T00:30:12.744Z,22.00
2022-11-01T00:32:14.198Z,22.38
2022-11-01T00:34:16.539Z,22.33
2022-11-01T00:36:18.371Z,21.85
2022-11-01T00:38:20.064Z,21.83
2022-11-01T00:40:21.531Z,21.50
2022-11-01T00:42:23.467Z,20.70
2022-11-01T00:44:26.318Z,22.13
2022-11-01T00:46:28.135Z,20.67
2022-11-01T00:48:30.066Z,20.45
2022-11-01T00:50:31.541Z,21.25
2022-11-01T00:52:33.031Z,19.98
2022-11-01T00:54:34.589Z,20.85
2022-11-01T00:56:36.094Z,19.23
2022-11-01T00:58:37.578Z,20.23
2022-11-01T01:00:40.529Z,20.48
2022-11-01T01:02:42.292Z,20.38
2022-11-01T01:04:43.779Z,21.52
2022-11-01T01:06:45.290Z,19.20
2022-11-01T01:08:46.778Z,20.77
2022-11-01T01:10:48.424Z,19.90
2022-11-01T01:12:49.913Z,18.88
2022-11-01T01:14:51.564Z,19.73
2022-11-01T01:16:55.153Z,19.23
2022-11-01T01:18:58.175Z,19.90
2022-11-01T01:21:03.124Z,19.13
2022-11-01T01:23:04.916Z,19.45
2022-11-01T01:25:07.396Z,20.20
2022-11-01T01:27:08.881Z,18.27
2022-11-01T01:29:10.349Z,20.50
2022-11-01T01:31:12.586Z,20.73
2022-11-01T01:33:15.487Z,23.15
2022-11-01T01:35:17.600Z,20.17
2022-11-01T01:37:19.507Z,20.25
2022-11-01T01:39:23.510Z,21.13
2022-11-01T01:41:25.010Z,20.27
2022-11-01T01:43:41.004Z,20.35
2022-11-01T01:45:42.918Z,21.60
2022-11-01T01:47:48.376Z,20.48
2022-11-01T01:50:00.389Z,21.58
2022-11-01T01:52:04.353Z,17.88
2022-11-01T01:54:06.026Z,18.95
2022-11-01T01:56:10.355Z,17.98
2022-11-01T01:58:15.215Z,17.33
2022-11-01T02:00:17.252Z,17.63
2022-11-01T02:02:20.332Z,18.20
2022-11-01T02:04:29.221Z,18.33
2022-11-01T02:06:33.350Z,18.13
2022-11-01T02:08:36.767Z,18.38
2022-11-01T02:10:40.847Z,16.80
2022-11-01T02:12:46.574Z,17.70
2022-11-01T02:14:48.110Z,17.17
2022-11-01T02:16:58.201Z,18.90
2022-11-01T02:19:17.589Z,17.92
2022-11-01T02:21:38.286Z,17.55
2022-11-01T02:24:07.263Z,17.70
2022-11-01T02:26:39.550Z,16.92
2022-11-01T02:28:54.957Z,18.25
2022-11-01T02:31:03.500Z,17.35
2022-11-01T02:33:28.395Z,17.15
2022-11-01T02:35:40.305Z,18.00
2022-11-01T02:37:47.569Z,17.88
2022-11-01T02:39:53.292Z,18.48
2022-11-01T02:42:00.204Z,18.05
2022-11-01T02:44:03.874Z,17.45
2022-11-01T02:46:08.244Z,18.05
2022-11-01T02:48:10.290Z,19.52
2022-11-01T02:50:13.825Z,19.20
2022-11-01T02:52:19.639Z,18.95
2022-11-01T02:54:22.890Z,18.25
2022-11-01T02:56:24.494Z,18.40
2022-11-01T02:58:29.607Z,18.27
2022-11-01T03:00:33.365Z,18.88
2022-11-01T03:02:40.256Z,18.83
2022-11-01T03:04:41.764Z,20.33
2022-11-01T03:06:51.012Z,18.83
2022-11-01T03:08:56.902Z,19.35
2022-11-01T03:11:05.348Z,19.70
2022-11-01T03:13:14.824Z,18.63
2022-11-01T03:15:21.421Z,18.60
2022-11-01T03:17:30.333Z,17.33
2022-11-01T03:19:43.693Z,19.02
2022-11-01T03:21:53.513Z,18.50
2022-11-01T03:24:01.237Z,17.90
2022-11-01T03:28:08.932Z,16.73
2022-11-01T03:30:13.979Z,15.73
2022-11-01T03:32:18.856Z,16.58
2022-11-01T03:34:21.007Z,16.75
2022-11-01T03:36:26.520Z,17.38
2022-11-01T03:38:34.322Z,16.75
2022-11-01T03:40:38.819Z,18.60
2022-11-01T03:42:43.624Z,16.30
2022-11-01T03:44:48.963Z,16.30
2022-11-01T03:46:50.517Z,16.88
2022-11-01T03:48:52.072Z,16.30
2022-11-01T03:50:54.779Z,18.70
2022-11-01T03:52:57.007Z,16.75
2022-11-01T03:54:59.884Z,17.60
2022-11-01T03:57:01.397Z,17.35
2022-11-01T03:59:02.921Z,17.55
2022-11-01T04:01:04.599Z,15.73
2022-11-01T04:03:06.722Z,17.20
2022-11-01T04:05:09.128Z,16.40
2022-11-01T04:07:10.650Z,16.73
2022-11-01T04:09:12.114Z,16.63
2022-11-01T04:11:14.945Z,16.02
2022-11-01T04:13:16.445Z,17.50
2022-11-01T04:15:20.342Z,16.83
2022-11-01T04:17:21.828Z,17.77
2022-11-01T04:19:23.349Z,16.85
2022-11-01T04:21:26.055Z,17.02
2022-11-01T04:23:27.616Z,18.65
2022-11-01T04:25:30.002Z,16.17
2022-11-01T04:27:32.852Z,19.75
2022-11-01T04:29:34.836Z,18.15
2022-11-01T04:31:36.928Z,18.63
2022-11-01T04:33:38.452Z,19.75
2022-11-01T04:35:39.927Z,16.95
2022-11-01T04:37:41.473Z,17.13
2022-11-01T04:39:42.982Z,17.60
2022-11-01T04:41:44.532Z,16.65
2022-11-01T04:43:47.425Z,19.73
2022-11-01T04:45:54.246Z,17.80
2022-11-01T04:48:03.862Z,18.27
2022-11-01T04:50:06.520Z,19.00
2022-11-01T04:52:11.022Z,17.55
2022-11-01T04:54:12.577Z,17.63
2022-11-01T04:56:14.082Z,17.35
2022-11-01T04:58:15.568Z,19.08
2022-11-01T05:00:18.693Z,17.52
2022-11-01T05:02:21.520Z,17.95
2022-11-01T05:04:23.069Z,16.50
2022-11-01T05:06:24.577Z,16.65
2022-11-01T05:08:26.459Z,18.45
2022-11-01T05:10:28.228Z,16.48
2022-11-01T05:12:29.884Z,16.40
2022-11-01T05:14:31.637Z,18.35
2022-11-01T05:16:34.549Z,17.33
2022-11-01T05:18:36.063Z,17.67
2022-11-01T05:20:37.663Z,17.50
2022-11-01T05:22:39.181Z,16.23
2022-11-01T05:26:49.188Z,15.75
2022-11-01T05:28:50.651Z,15.52
2022-11-01T05:30:52.124Z,14.00
2022-11-01T05:32:59.447Z,16.35
2022-11-01T05:35:01.126Z,18.08
2022-11-01T05:37:02.635Z,17.30
2022-11-01T05:39:04.234Z,18.55
2022-11-01T05:41:06.135Z,18.02
2022-11-01T05:43:07.749Z,18.20
2022-11-01T05:45:10.083Z,18.35
2022-11-01T05:47:16.081Z,18.67
2022-11-01T05:49:20.379Z,19.13
2022-11-01T05:51:22.835Z,19.23
2022-11-01T05:53:24.444Z,19.20
2022-11-01T05:55:27.395Z,19.17
2022-11-01T05:57:33.239Z,18.55
2022-11-01T05:59:35.034Z,19.40
2022-11-01T06:01:36.611Z,18.92
2022-11-01T06:03:38.344Z,19.00
2022-11-01T06:05:41.251Z,19.33
2022-11-01T06:07:42.760Z,19.42
2022-11-01T06:09:44.399Z,20.63
2022-11-01T06:11:45.910Z,19.75
2022-11-01T06:13:47.381Z,20.83
2022-11-01T06:15:48.955Z,19.55
2022-11-01T06:17:55.142Z,20.42
2022-11-01T06:19:56.686Z,20.73
2022-11-01T06:21:59.594Z,18.27
2022-11-01T06:24:01.574Z,20.33
2022-11-01T06:26:04.447Z,19.35
2022-11-01T06:28:05.990Z,18.70
2022-11-01T06:30:09.141Z,18.15
2022-11-01T06:32:10.685Z,17.80
2022-11-01T06:34:12.236Z,18.40
2022-11-01T06:36:13.734Z,18.15
2022-11-01T06:38:16.579Z,20.42
2022-11-01T06:40:18.178Z,20.35
2022-11-01T06:42:19.706Z,19.60
2022-11-01T06:44:21.768Z,20.02
2022-11-01T06:46:23.300Z,19.60
2022-11-01T06:50:40.636Z,17.38
2022-11-01T06:52:42.322Z,17.77
2022-11-01T06:54:45.154Z,18.38
2022-11-01T06:56:47.138Z,18.58
2022-11-01T06:58:48.936Z,17.50
2022-11-01T07:00:50.504Z,18.75
2022-11-01T07:02:58.708Z,18.67
2022-11-01T07:05:00.270Z,18.98
2022-11-01T07:07:01.771Z,18.70
2022-11-01T07:09:03.460Z,15.68
2022-11-01T07:11:06.434Z,17.63
2022-11-01T07:13:10.632Z,17.85
2022-11-01T07:15:12.119Z,16.52
2022-11-01T07:17:13.723Z,18.38
2022-11-01T07:19:15.292Z,17.20
2022-11-01T07:21:16.865Z,18.75
2022-11-01T07:23:18.494Z,16.23
2022-11-01T07:25:19.978Z,16.83
2022-11-01T07:27:24.640Z,17.50
2022-11-01T07:29:26.184Z,15.15
2022-11-01T07:31:27.696Z,15.07
2022-11-01T07:33:29.264Z,16.92
2022-11-01T07:35:30.990Z,15.95
2022-11-01T07:37:32.567Z,16.23
2022-11-01T07:39:34.074Z,16.73
2022-11-01T07:41:35.583Z,16.98
2022-11-01T07:43:38.732Z,16.42
2022-11-01T07:45:40.300Z,16.23
2022-11-01T07:47:41.866Z,16.25
2022-11-01T07:49:45.066Z,16.08
2022-11-01T07:51:48.220Z,15.82
2022-11-01T07:53:52.559Z,15.98
2022-11-01T07:55:54.164Z,16.13
2022-11-01T07:57:55.719Z,15.35
2022-11-01T07:59:58.618Z,15.30
2022-11-01T08:02:02.550Z,16.92
2022-11-01T08:04:06.928Z,14.85
2022-11-01T08:06:09.037Z,15.48
2022-11-01T08:08:10.739Z,15.48
2022-11-01T08:10:12.425Z,16.23
2022-11-01T08:12:14.596Z,17.23
2022-11-01T08:14:19.069Z,14.82
2022-11-01T08:16:21.988Z,15.52
2022-11-01T08:18:25.373Z,15.00
2022-11-01T08:20:29.184Z,14.88
2022-11-01T08:22:30.733Z,15.70
2022-11-01T08:24:32.491Z,14.15
2022-11-01T08:26:34.025Z,14.57
2022-11-01T08:28:40.000Z,14.80
2022-11-01T08:30:44.453Z,13.38
2022-11-01T08:32:47.357Z,14.85
2022-11-01T08:34:49.120Z,14.00
2022-11-01T08:36:50.644Z,13.57
2022-11-01T08:38:52.215Z,12.88
2022-11-01T08:40:53.847Z,14.05
2022-11-01T08:42:55.725Z,12.85
2022-11-01T08:44:57.297Z,13.00
2022-11-01T08:46:59.395Z,14.82
2022-11-01T08:49:02.741Z,11.85
2022-11-01T08:51:04.372Z,13.63
2022-11-01T08:53:07.116Z,12.63
2022-11-01T08:55:10.336Z,14.80
2022-11-01T08:57:11.899Z,13.32
2022-11-01T08:59:13.414Z,13.30
2022-11-01T09:01:15.270Z,13.80
2022-11-01T09:03:17.015Z,13.30
2022-11-01T09:05:20.133Z,13.95
2022-11-01T09:07:21.686Z,15.93
2022-11-01T09:09:23.189Z,12.77
2022-11-01T09:11:25.633Z,11.88
2022-11-01T09:13:27.307Z,11.32
2022-11-01T09:15:29.101Z,11.60
2022-11-01T09:17:30.801Z,11.55
2022-11-01T09:19:32.397Z,13.40
2022-11-01T09:21:35.374Z,11.15
2022-11-01T09:23:37.554Z,10.35
2022-11-01T09:25:42.102Z,11.75
2022-11-01T09:27:46.400Z,11.68
2022-11-01T09:29:51.031Z,10.65
2022-11-01T09:31:54.336Z,10.48
2022-11-01T09:33:56.658Z,18.70
2022-11-01T09:36:00.332Z,9.80
2022-11-01T09:38:03.894Z,9.52
2022-11-01T09:40:07.083Z,9.73
2022-11-01T09:42:14.358Z,10.35
2022-11-01T09:44:20.463Z,12.68
2022-11-01T09:46:28.587Z,11.55
2022-11-01T09:48:33.101Z,11.68
2022-11-01T09:50:38.066Z,9.93
2022-11-01T09:52:40.950Z,9.98
2022-11-01T09:54:44.118Z,10.35
2022-11-01T09:56:53.841Z,9.65
2022-11-01T09:59:03.845Z,10.20
2022-11-01T10:01:18.819Z,10.70
2022-11-01T10:03:40.423Z,10.63
2022-11-01T10:05:51.888Z,10.77
2022-11-01T10:08:03.343Z,10.25
2022-11-01T10:10:22.384Z,9.45
2022-11-01T10:12:40.534Z,9.63
2022-11-01T10:15:02.472Z,9.35
2022-11-01T10:17:12.654Z,10.38
2022-11-01T10:19:16.072Z,9.07
2022-11-01T10:21:19.748Z,8.95
2022-11-01T10:23:31.322Z,10.57
2022-11-01T10:25:58.703Z,9.60
2022-11-01T10:28:07.510Z,9.52
2022-11-01T10:30:16.068Z,10.30
2022-11-01T10:32:27.107Z,9.38
2022-11-01T10:34:36.138Z,9.68
2022-11-01T10:36:43.368Z,9.45
2022-11-01T10:39:29.968Z,9.70
2022-11-01T10:41:20.660Z,8.80
2022-11-01T10:43:28.201Z,9.10
2022-11-01T10:45:30.381Z,8.45
2022-11-01T10:47:31.972Z,9.35
2022-11-01T10:52:02.749Z,10.95
2022-11-01T10:54:10.921Z,10.77
2022-11-01T10:56:21.308Z,9.52
2022-11-01T10:58:37.409Z,9.25
2022-11-01T11:00:41.890Z,9.02
2022-11-01T11:02:48.806Z,9.15
2022-11-01T11:04:50.644Z,10.10
2022-11-01T11:06:52.516Z,8.80
2022-11-01T11:08:56.432Z,7.55
2022-11-01T11:11:02.505Z,6.82
2022-11-01T11:13:07.684Z,7.18
2022-11-01T11:15:18.251Z,8.00
2022-11-01T11:17:24.897Z,6.78
2022-11-01T11:19:35.714Z,6.68
2022-11-01T11:21:37.704Z,6.78
2022-11-01T11:23:41.349Z,7.82
2022-11-01T11:25:42.969Z,19.45
2022-11-01T11:27:46.767Z,15.10
2022-11-01T11:29:52.998Z,5.53
2022-11-01T11:31:59.684Z,5.30
2022-11-01T11:34:06.914Z,6.57
2022-11-01T11:36:08.864Z,7.70
2022-11-01T11:38:14.344Z,6.10
2022-11-01T11:40:19.691Z,6.55
2022-11-01T11:42:25.379Z,6.70
2022-11-01T11:44:40.404Z,6.35
2022-11-01T11:46:56.527Z,7.93
2022-11-01T11:49:00.275Z,6.32
2022-11-01T11:51:04.751Z,6.72
2022-11-01T11:53:16.985Z,7.10
2022-11-01T11:55:29.276Z,6.35
2022-11-01T11:57:36.708Z,6.50
2022-11-01T11:59:39.917Z,5.57
2022-11-01T12:01:41.992Z,5.82
2022-11-01T12:03:50.702Z,5.57
2022-11-01T12:05:59.049Z,7.25
2022-11-01T12:08:00.943Z,5.57
2022-11-01T12:10:04.705Z,7.00
2022-11-01T12:12:07.822Z,4.93
2022-11-01T12:14:22.105Z,6.10
2022-11-01T12:16:24.601Z,5.70
2022-11-01T12:18:26.307Z,6.65
2022-11-01T12:20:37.198Z,6.63
2022-11-01T12:22:44.914Z,5.53
2022-11-01T12:24:50.731Z,5.57
2022-11-01T12:26:55.651Z,5.55
2022-11-01T12:29:08.631Z,5.97
2022-11-01T12:31:14.814Z,5.40
2022-11-01T12:33:24.932Z,5.60
2022-11-01T12:35:31.450Z,6.28
2022-11-01T12:37:46.183Z,5.53
2022-11-01T12:39:53.148Z,5.45
2022-11-01T12:41:58.349Z,5.07
2022-11-01T12:44:08.053Z,5.60
2022-11-01T12:46:16.052Z,5.15
2022-11-01T12:48:24.014Z,5.47
2022-11-01T12:50:32.159Z,5.68
2022-11-01T12:52:42.363Z,5.80
2022-11-01T12:54:52.770Z,5.80
2022-11-01T12:56:54.868Z,5.53
2022-11-01T12:59:00.696Z,6.80
2022-11-01T13:01:21.796Z,6.47
2022-11-01T13:03:38.108Z,6.07
2022-11-01T13:05:52.184Z,6.38
2022-11-01T13:08:05.021Z,6.97
2022-11-01T13:10:14.651Z,6.53
2022-11-01T13:12:26.544Z,5.72
2022-11-01T13:14:42.669Z,6.07
2022-11-01T13:16:50.434Z,5.45
2022-11-01T13:19:14.065Z,5.53
2022-11-01T13:21:28.491Z,6.50
2022-11-01T13:23:36.124Z,5.68
2022-11-01T13:27:52.971Z,6.75
2022-11-01T13:30:02.199Z,6.43
2022-11-01T13:32:13.456Z,5.43
2022-11-01T13:34:28.369Z,5.30
2022-11-01T13:36:38.775Z,5.25
2022-11-01T13:38:47.665Z,6.38
2022-11-01T13:40:56.719Z,6.63
2022-11-01T13:43:04.449Z,5.65
2022-11-01T13:45:36.603Z,5.10
2022-11-01T13:47:50.017Z,5.05
2022-11-01T13:50:34.141Z,5.68
2022-11-01T13:52:42.673Z,5.20
2022-11-01T13:54:52.027Z,5.57
2022-11-01T13:56:58.069Z,5.35
2022-11-01T13:58:59.867Z,5.43
2022-11-01T14:01:33.904Z,5.35
2022-11-01T14:03:36.510Z,5.53
2022-11-01T14:05:38.891Z,5.35
2022-11-01T14:08:15.225Z,4.95
2022-11-01T14:10:49.520Z,5.78
2022-11-01T14:13:14.243Z,5.40
2022-11-01T14:15:19.969Z,5.97
2022-11-01T14:18:01.377Z,5.13
2022-11-01T14:20:45.019Z,6.07
2022-11-01T14:22:50.127Z,5.78
2022-11-01T14:24:57.750Z,6.30
2022-11-01T14:29:15.583Z,5.57
2022-11-01T14:31:19.990Z,5.75
2022-11-01T14:33:22.850Z,5.10
2022-11-01T14:35:27.136Z,5.85
2022-11-01T14:37:40.920Z,4.85
2022-11-01T14:39:51.696Z,5.78
2022-11-01T14:41:58.515Z,5.50
2022-11-01T14:44:05.431Z,4.85
2022-11-01T14:46:14.269Z,5.50
2022-11-01T14:48:22.510Z,4.82
2022-11-01T14:50:31.486Z,5.18
2022-11-01T14:52:41.958Z,5.32
2022-11-01T14:54:46.511Z,5.93
2022-11-01T14:56:50.184Z,4.82
2022-11-01T14:59:11.244Z,5.50
2022-11-01T15:01:15.506Z,4.93
2022-11-01T15:03:18.330Z,6.32
2022-11-01T15:05:20.002Z,5.20
2022-11-01T15:07:26.218Z,4.97
2022-11-01T15:09:32.226Z,5.60
2022-11-01T15:11:35.137Z,5.40
2022-11-01T15:13:42.354Z,5.80
2022-11-01T15:15:53.491Z,5.55
2022-11-01T15:17:57.429Z,5.60
2022-11-01T15:20:01.572Z,4.93
2022-11-01T15:22:06.081Z,5.30
2022-11-01T15:24:18.841Z,5.38
2022-11-01T15:26:25.055Z,5.50
2022-11-01T15:28:34.696Z,5.63
2022-11-01T15:30:38.593Z,5.90
2022-11-01T15:32:41.582Z,5.57
2022-11-01T15:34:51.820Z,5.93
2022-11-01T15:36:53.779Z,5.65
2022-11-01T15:38:57.268Z,5.18
2022-11-01T15:40:58.985Z,5.15
2022-11-01T15:43:02.362Z,5.30
2022-11-01T15:45:19.087Z,5.20
2022-11-01T15:47:24.163Z,4.97
2022-11-01T15:49:30.990Z,5.28
2022-11-01T15:51:46.629Z,5.82
2022-11-01T15:53:54.592Z,5.60
2022-11-01T15:56:01.208Z,6.78
2022-11-01T15:58:07.928Z,6.90
2022-11-01T16:00:18.520Z,7.20
2022-11-01T16:02:25.307Z,7.53
2022-11-01T16:04:35.414Z,7.45
2022-11-01T16:06:45.637Z,6.22
2022-11-01T16:08:51.719Z,6.38
2022-11-01T16:10:53.732Z,6.38
2022-11-01T16:12:58.114Z,5.68
2022-11-01T16:15:05.971Z,6.70
2022-11-01T16:17:21.884Z,6.07
2022-11-01T16:19:38.604Z,6.18
2022-11-01T16:21:47.819Z,6.03
2022-11-01T16:23:53.781Z,7.85
2022-11-01T16:26:04.323Z,7.25
2022-11-01T16:28:30.253Z,6.88
2022-11-01T16:30:44.641Z,6.45
2022-11-01T16:32:46.239Z,8.23
2022-11-01T16:34:49.492Z,7.47
2022-11-01T16:36:53.259Z,7.43
2022-11-01T16:38:55.310Z,7.18
2022-11-01T16:40:58.802Z,6.43
2022-11-01T16:43:00.559Z,6.90
2022-11-01T16:45:02.121Z,7.72
2022-11-01T16:47:08.770Z,9.18
2022-11-01T16:49:19.441Z,9.25
2022-11-01T16:51:23.780Z,8.95
2022-11-01T16:53:29.271Z,7.93
2022-11-01T16:55:32.416Z,7.68
2022-11-01T16:57:38.243Z,7.18
2022-11-01T16:59:41.423Z,7.13
2022-11-01T17:01:45.667Z,6.68
2022-11-01T17:03:47.677Z,6.88
2022-11-01T17:05:53.812Z,7.07
2022-11-01T17:07:59.242Z,6.38
2022-11-01T17:10:00.904Z,6.65
2022-11-01T17:12:06.148Z,6.55
2022-11-01T17:14:07.684Z,6.80
2022-11-01T17:16:17.066Z,8.20
2022-11-01T17:18:27.921Z,8.77
2022-11-01T17:20:29.765Z,9.35
2022-11-01T17:22:34.732Z,8.68
2022-11-01T17:24:37.863Z,9.10
2022-11-01T17:26:39.481Z,8.65
2022-11-01T17:28:46.640Z,7.63
2022-11-01T17:30:53.477Z,7.50
2022-11-01T17:32:54.955Z,8.40
2022-11-01T17:34:56.540Z,8.52
2022-11-01T17:37:00.535Z,8.30
2022-11-01T17:39:02.232Z,8.35
2022-11-01T17:41:16.940Z,8.63
2022-11-01T17:43:21.059Z,8.15
2022-11-01T17:45:22.841Z,6.50
2022-11-01T17:47:24.387Z,8.00
2022-11-01T17:49:25.991Z,9.70
2022-11-01T17:51:29.594Z,8.25
2022-11-01T17:53:31.303Z,8.07
2022-11-01T17:55:34.400Z,7.65
2022-11-01T17:57:38.650Z,8.65
2022-11-01T17:59:40.273Z,10.02
2022-11-01T18:01:41.969Z,8.68
2022-11-01T18:03:43.579Z,7.90
2022-11-01T18:05:45.348Z,8.45
2022-11-01T18:07:49.718Z,8.40
2022-11-01T18:09:53.621Z,8.32
2022-11-01T18:12:07.629Z,9.70
2022-11-01T18:16:26.405Z,8.02
2022-11-01T18:18:39.290Z,9.05
2022-11-01T18:20:49.449Z,8.35
2022-11-01T18:22:54.585Z,9.25
2022-11-01T18:25:00.366Z,9.88
2022-11-01T18:27:07.713Z,33.97
2022-11-01T18:29:16.717Z,19.23
2022-11-01T18:31:22.188Z,15.23
2022-11-01T18:33:32.647Z,16.13
2022-11-01T18:35:40.028Z,12.93
2022-11-01T18:37:47.118Z,12.32
2022-11-01T18:39:55.484Z,11.98
2022-11-01T18:41:58.713Z,14.82
2022-11-01T18:44:00.339Z,12.35
2022-11-01T18:46:24.396Z,8.95
2022-11-01T18:48:28.140Z,11.07
2022-11-01T18:50:29.708Z,9.70
2022-11-01T18:52:33.122Z,12.38
2022-11-01T18:54:40.661Z,9.73
2022-11-01T18:56:48.185Z,11.43
2022-11-01T18:58:51.091Z,13.45
2022-11-01T19:01:01.404Z,10.63
2022-11-01T19:03:11.039Z,18.25
2022-11-01T19:05:15.371Z,9.82
2022-11-01T19:07:19.101Z,8.57
2022-11-01T19:09:24.533Z,11.57
2022-11-01T19:11:27.370Z,13.50
2022-11-01T19:13:33.065Z,25.17
2022-11-01T19:15:37.470Z,26.67
2022-11-01T19:17:41.592Z,18.77
2022-11-01T19:19:44.604Z,15.70
2022-11-01T19:21:46.531Z,16.30
2022-11-01T19:23:49.616Z,13.77
2022-11-01T19:25:51.391Z,11.80
2022-11-01T19:27:56.834Z,11.70
2022-11-01T19:29:58.734Z,10.32
2022-11-01T19:32:03.400Z,8.45
2022-11-01T19:34:12.436Z,9.48
2022-11-01T19:36:19.204Z,8.25
2022-11-01T19:38:21.683Z,7.20
2022-11-01T19:40:28.154Z,8.18
2022-11-01T19:42:31.585Z,7.63
2022-11-01T19:44:33.266Z,7.00
2022-11-01T19:46:35.676Z,8.35
2022-11-01T19:48:37.297Z,7.47
2022-11-01T19:50:41.355Z,7.88
2022-11-01T19:52:47.289Z,7.38
2022-11-01T19:54:54.346Z,8.20
2022-11-01T19:56:59.107Z,6.70
2022-11-01T19:59:01.266Z,7.65
2022-11-01T20:01:30.700Z,7.18
2022-11-01T20:03:40.056Z,7.10
2022-11-01T20:05:41.854Z,7.40
2022-11-01T20:07:44.810Z,6.50
2022-11-01T20:09:46.861Z,7.38
2022-11-01T20:11:49.133Z,7.55
2022-11-01T20:13:50.877Z,7.10
2022-11-01T20:15:52.446Z,8.55
2022-11-01T20:17:54.101Z,7.60
2022-11-01T20:19:56.171Z,7.50
2022-11-01T20:21:58.147Z,7.03
2022-11-01T20:24:01.559Z,7.90
2022-11-01T20:26:04.180Z,13.85
2022-11-01T20:28:07.327Z,11.25
2022-11-01T20:30:11.425Z,9.57
2022-11-01T20:32:13.836Z,11.32
2022-11-01T20:34:18.529Z,10.02
2022-11-01T20:36:20.968Z,17.23
2022-11-01T20:38:23.089Z,10.52
2022-11-01T20:40:26.964Z,13.23
2022-11-01T20:42:28.844Z,14.77
2022-11-01T20:44:33.054Z,17.52
2022-11-01T20:46:37.396Z,14.63
2022-11-01T20:48:39.649Z,11.93
2022-11-01T20:50:44.633Z,10.60
2022-11-01T20:52:46.942Z,10.27
2022-11-01T20:54:49.071Z,13.40
2022-11-01T20:56:52.192Z,12.52
2022-11-01T20:58:53.884Z,9.35
2022-11-01T21:00:56.059Z,10.20
2022-11-01T21:02:58.084Z,8.55
2022-11-01T21:05:02.721Z,7.70
2022-11-01T21:07:09.353Z,7.22
2022-11-01T21:09:29.107Z,6.95
2022-11-01T21:11:31.925Z,8.07
2022-11-01T21:13:37.239Z,9.15
2022-11-01T21:15:39.901Z,7.88
2022-11-01T21:17:41.631Z,7.85
2022-11-01T21:19:45.074Z,8.82
2022-11-01T21:21:48.965Z,7.80
2022-11-01T21:23:50.888Z,9.45
2022-11-01T21:25:55.873Z,10.85
2022-11-01T21:27:58.093Z,10.15
2022-11-01T21:30:16.853Z,6.88
2022-11-01T21:32:25.101Z,8.15
2022-11-01T21:34:29.805Z,9.10
2022-11-01T21:36:36.428Z,7.82
2022-11-01T21:38:41.261Z,9.40
2022-11-01T21:40:42.927Z,8.95
2022-11-01T21:42:45.236Z,7.07
2022-11-01T21:44:47.050Z,6.85
2022-11-01T21:46:52.081Z,7.63
2022-11-01T21:48:57.870Z,7.07
2022-11-01T21:50:59.632Z,6.18
2022-11-01T21:53:01.705Z,6.60
2022-11-01T21:55:04.728Z,7.40
2022-11-01T21:57:08.334Z,7.10
2022-11-01T21:59:10.284Z,6.80
2022-11-01T22:01:12.420Z,6.20
2022-11-01T22:03:15.991Z,8.00
2022-11-01T22:05:18.618Z,7.68
2022-11-01T22:07:20.596Z,7.30
2022-11-01T22:09:22.456Z,9.48
2022-11-01T22:11:26.911Z,8.50
2022-11-01T22:13:31.015Z,7.78
2022-11-01T22:15:33.712Z,8.02
2022-11-01T22:17:35.721Z,7.05
2022-11-01T22:19:38.975Z,8.07
2022-11-01T22:21:40.962Z,7.45
2022-11-01T22:23:42.982Z,9.95
2022-11-01T22:25:45.089Z,8.60
2022-11-01T22:27:46.707Z,7.55
2022-11-01T22:29:48.254Z,7.22
2022-11-01T22:31:49.812Z,8.73
2022-11-01T22:33:52.144Z,9.15
2022-11-01T22:35:55.288Z,11.43
2022-11-01T22:37:56.933Z,11.05
2022-11-01T22:39:58.861Z,7.65
2022-11-01T22:42:00.964Z,7.53
2022-11-01T22:44:04.723Z,7.55
2022-11-01T22:46:20.207Z,6.50
2022-11-01T22:48:23.227Z,7.93
2022-11-01T22:50:28.618Z,7.68
2022-11-01T22:52:38.600Z,7.97
2022-11-01T22:54:42.785Z,7.90
2022-11-01T22:56:44.467Z,11.20
2022-11-01T22:58:46.261Z,11.38
2022-11-01T23:00:49.418Z,13.52
2022-11-01T23:02:51.983Z,14.18
2022-11-01T23:05:15.974Z,10.00
2022-11-01T23:07:26.446Z,8.40
2022-11-01T23:09:29.849Z,7.60
2022-11-01T23:11:31.951Z,8.23
2022-11-01T23:13:36.710Z,6.68
2022-11-01T23:15:38.641Z,7.72
2022-11-01T23:17:40.852Z,11.68
2022-11-01T23:19:45.239Z,14.75
2022-11-01T23:21:48.236Z,14.73
2022-11-01T23:23:53.363Z,11.77
2022-11-01T23:26:00.706Z,10.73
2022-11-01T23:28:02.273Z,10.50
2022-11-01T23:30:04.621Z,13.20
2022-11-01T23:32:08.584Z,9.60
2022-11-01T23:34:10.169Z,9.18
2022-11-01T23:36:17.040Z,10.00
2022-11-01T23:38:21.458Z,7.43
2022-11-01T23:40:28.517Z,8.05
2022-11-01T23:42:31.584Z,7.35
2022-11-01T23:44:37.175Z,6.75
2022-11-01T23:46:38.841Z,6.22
2022-11-01T23:48:44.204Z,7.28
2022-11-01T23:50:46.515Z,6.00
2022-11-01T23:52:52.901Z,6.60
2022-11-01T23:54:54.485Z,5.85
2022-11-01T23:56:56.038Z,6.53
2022-11-01T23:59:02.884Z,6.50
